Time;durP1;ratioP1;P1;durP2;ratioP2;P2;SDS_P1;SDS_P2;PMS_P1;PMS_P2;Temp;Humidity;BMP_temperature;BMP_pressure;BME280_temperature;BME280_humidity;BME280_pressure;Samples;Min_cycle;Max_cycle;Signal;HPM_P1;HPM_P2
2023/12/29 00:01:44;;;;;;;1.27;1.17;;;8.70;99.90;;;;;;4932121;28;20206;-63
2023/12/29 00:04:09;;;;;;;1.47;1.37;;;8.70;99.90;;;;;;4932085;29;20199;-64
2023/12/29 00:06:38;;;;;;;1.27;1.03;;;8.70;99.90;;;;;;4934093;28;20237;-60
2023/12/29 00:09:04;;;;;;;1.80;1.33;;;8.70;99.90;;;;;;4927914;29;20225;-63
2023/12/29 00:11:30;;;;;;;1.50;1.33;;;8.80;99.90;;;;;;4933667;29;20309;-65
2023/12/29 00:13:55;;;;;;;1.47;1.37;;;8.70;99.90;;;;;;4925057;29;20267;-62
2023/12/29 00:16:21;;;;;;;3.23;2.00;;;8.80;99.90;;;;;;4921233;29;20704;-58
2023/12/29 00:18:46;;;;;;;1.80;1.50;;;8.80;99.90;;;;;;4917723;28;20256;-56
2023/12/29 00:21:12;;;;;;;1.53;1.43;;;8.80;99.90;;;;;;4928590;29;20202;-57
2023/12/29 00:23:37;;;;;;;1.20;1.20;;;8.80;99.90;;;;;;4924518;29;20194;-58
2023/12/29 00:26:03;;;;;;;1.57;1.47;;;8.80;99.90;;;;;;4927847;29;20270;-58
2023/12/29 00:28:29;;;;;;;3.07;1.33;;;8.80;99.90;;;;;;4928879;29;20241;-62
2023/12/29 00:30:54;;;;;;;1.93;1.37;;;8.80;99.90;;;;;;4931143;28;20209;-63
2023/12/29 00:33:20;;;;;;;1.77;1.60;;;8.80;99.90;;;;;;4942498;28;20212;-66
2023/12/29 00:35:45;;;;;;;3.13;1.37;;;8.80;99.90;;;;;;4931024;28;20671;-56
2023/12/29 00:38:11;;;;;;;2.00;1.43;;;8.80;99.90;;;;;;4929900;28;20206;-56
2023/12/29 00:40:37;;;;;;;2.07;1.27;;;8.80;99.90;;;;;;4953284;28;20795;-56
2023/12/29 00:43:02;;;;;;;1.60;1.50;;;8.90;99.90;;;;;;4952256;28;20276;-55
2023/12/29 00:45:33;;;;;;;2.40;1.00;;;8.90;99.90;;;;;;4932083;28;20201;-56
2023/12/29 00:47:59;;;;;;;1.67;1.47;;;8.90;99.90;;;;;;4948423;28;20226;-55
2023/12/29 00:50:26;;;;;;;7.50;1.60;;;8.90;99.90;;;;;;4923832;28;20927;-56
2023/12/29 00:52:52;;;;;;;3.53;1.43;;;8.90;99.90;;;;;;4949034;28;20715;-56
2023/12/29 00:55:17;;;;;;;3.83;1.30;;;8.90;99.90;;;;;;4931023;28;20205;-57
2023/12/29 00:57:43;;;;;;;3.03;1.60;;;8.90;99.90;;;;;;4946259;28;20672;-57
2023/12/29 01:00:11;;;;;;;1.30;1.20;;;8.90;99.90;;;;;;4928570;28;20230;-54
2023/12/29 01:02:37;;;;;;;3.83;1.77;;;8.90;99.90;;;;;;4946781;28;20575;-58
2023/12/29 01:05:03;;;;;;;4.03;1.87;;;8.90;99.90;;;;;;4923122;28;20927;-58
2023/12/29 01:07:29;;;;;;;4.53;2.30;;;8.90;99.90;;;;;;4942746;28;20864;-65
2023/12/29 01:09:54;;;;;;;1.20;1.10;;;8.90;99.90;;;;;;4930572;28;20654;-63
2023/12/29 01:12:20;;;;;;;2.60;1.30;;;8.90;99.90;;;;;;4932753;28;20248;-63
2023/12/29 01:14:46;;;;;;;2.90;1.60;;;8.90;99.90;;;;;;4951000;28;20200;-64
2023/12/29 01:17:11;;;;;;;3.93;1.40;;;8.90;99.90;;;;;;4931936;28;20206;-56
2023/12/29 01:19:37;;;;;;;3.87;1.67;;;8.90;99.90;;;;;;4961278;28;20227;-56
2023/12/29 01:22:03;;;;;;;3.93;1.33;;;8.90;99.90;;;;;;4949131;28;20263;-55
2023/12/29 01:24:28;;;;;;;1.27;1.17;;;8.90;99.90;;;;;;4949676;28;20193;-61
2023/12/29 01:26:54;;;;;;;1.50;1.40;;;8.90;99.90;;;;;;4924668;28;20205;-61
2023/12/29 01:29:20;;;;;;;2.20;1.40;;;8.90;99.90;;;;;;4932445;28;20213;-59
2023/12/29 01:31:45;;;;;;;2.83;1.40;;;8.90;99.90;;;;;;4923476;28;20211;-58
2023/12/29 01:34:11;;;;;;;1.70;1.60;;;8.90;99.90;;;;;;4926510;29;20663;-57
2023/12/29 01:36:36;;;;;;;4.20;1.40;;;8.90;99.90;;;;;;4928798;29;20209;-57
2023/12/29 01:39:02;;;;;;;3.20;1.67;;;8.90;99.90;;;;;;4931865;28;20240;-57
2023/12/29 01:41:29;;;;;;;2.27;1.40;;;8.90;99.90;;;;;;4932229;29;20198;-57
2023/12/29 01:44:00;;;;;;;1.17;1.07;;;9.00;99.90;;;;;;4933115;29;20194;-59
2023/12/29 01:46:29;;;;;;;3.27;1.77;;;9.00;99.90;;;;;;4931057;29;20277;-63
2023/12/29 01:48:55;;;;;;;3.63;1.47;;;9.00;99.90;;;;;;4925733;28;20340;-63
2023/12/29 01:51:23;;;;;;;4.93;1.33;;;9.00;99.90;;;;;;4925844;29;20206;-62
2023/12/29 01:53:49;;;;;;;2.73;1.57;;;9.00;99.90;;;;;;4923663;29;20210;-56
2023/12/29 01:56:15;;;;;;;2.30;1.20;;;9.00;99.90;;;;;;4925495;29;20269;-56
2023/12/29 01:58:41;;;;;;;1.53;1.43;;;9.00;99.90;;;;;;4926284;29;20285;-57
2023/12/29 02:01:07;;;;;;;1.50;1.30;;;9.00;99.90;;;;;;4924169;29;20238;-55
2023/12/29 02:03:34;;;;;;;2.93;1.50;;;9.00;99.90;;;;;;4927914;29;20578;-56
2023/12/29 02:06:00;;;;;;;3.33;1.80;;;9.00;99.90;;;;;;4926598;29;20291;-56
2023/12/29 02:08:26;;;;;;;1.57;1.47;;;9.00;99.90;;;;;;4925885;29;20210;-56
2023/12/29 02:10:51;;;;;;;4.23;1.50;;;9.00;99.90;;;;;;4925200;29;20214;-56
2023/12/29 02:13:17;;;;;;;1.83;1.67;;;9.10;99.90;;;;;;4927457;29;20213;-55
2023/12/29 02:15:42;;;;;;;2.23;1.30;;;9.00;99.90;;;;;;4920258;28;20210;-55
2023/12/29 02:18:14;;;;;;;2.50;1.33;;;9.00;99.90;;;;;;4923988;29;20224;-55
2023/12/29 02:20:41;;;;;;;5.03;1.97;;;9.10;99.90;;;;;;4931288;29;20342;-55
2023/12/29 02:23:06;;;;;;;2.37;1.23;;;9.10;99.90;;;;;;4931296;29;20206;-56
2023/12/29 02:25:32;;;;;;;2.43;1.50;;;9.10;99.90;;;;;;4925716;29;20742;-55
2023/12/29 02:28:19;;;;;;;1.67;1.17;;;9.00;99.90;;;;;;4922034;29;20207;-56
2023/12/29 02:31:07;;;;;;;4.17;1.60;;;9.00;99.90;;;;;;4925982;29;20229;-55
2023/12/29 02:33:38;;;;;;;1.37;1.27;;;9.00;99.90;;;;;;4930200;28;20220;-57
2023/12/29 02:36:05;;;;;;;2.80;1.30;;;9.00;99.90;;;;;;4935410;28;20684;-65
2023/12/29 02:38:31;;;;;;;2.90;1.50;;;9.00;99.90;;;;;;4928078;29;20198;-57
2023/12/29 02:40:58;;;;;;;1.67;1.57;;;9.00;99.90;;;;;;4948404;28;20932;-62
2023/12/29 02:43:23;;;;;;;2.27;1.67;;;9.00;99.90;;;;;;4919466;28;20204;-62
2023/12/29 02:45:48;;;;;;;1.73;1.60;;;9.00;99.90;;;;;;4917549;28;20206;-63
2023/12/29 02:48:14;;;;;;;1.83;1.57;;;9.00;99.90;;;;;;4936050;28;20210;-60
2023/12/29 02:50:39;;;;;;;1.70;1.37;;;9.00;99.90;;;;;;4934944;28;20692;-63
2023/12/29 02:53:06;;;;;;;1.37;1.27;;;9.10;99.90;;;;;;4937644;28;20218;-58
2023/12/29 02:55:32;;;;;;;0.83;0.83;;;9.00;99.90;;;;;;4922988;28;20595;-57
2023/12/29 02:57:57;;;;;;;3.30;1.73;;;9.10;99.90;;;;;;4936927;28;20209;-56
2023/12/29 03:00:23;;;;;;;2.20;1.20;;;9.00;99.90;;;;;;4933068;28;20576;-55
2023/12/29 03:02:48;;;;;;;1.33;1.17;;;9.10;99.90;;;;;;4942276;28;20206;-55
2023/12/29 03:05:14;;;;;;;1.47;1.47;;;9.00;99.90;;;;;;4932519;28;20201;-54
2023/12/29 03:07:40;;;;;;;2.57;1.43;;;9.00;99.90;;;;;;4949748;28;20234;-53
2023/12/29 03:10:07;;;;;;;2.57;1.63;;;9.10;99.90;;;;;;4951791;28;20229;-54
2023/12/29 03:12:32;;;;;;;3.57;1.47;;;9.10;99.90;;;;;;4944029;28;20595;-55
2023/12/29 03:14:58;;;;;;;1.50;1.40;;;9.10;99.90;;;;;;4946317;28;20276;-55
2023/12/29 03:17:23;;;;;;;2.30;1.20;;;9.10;99.90;;;;;;4952038;28;20205;-56
2023/12/29 03:19:49;;;;;;;1.10;1.00;;;9.10;99.90;;;;;;4948244;28;20269;-55
2023/12/29 03:22:14;;;;;;;2.50;1.30;;;9.10;99.90;;;;;;4947188;28;20201;-55
2023/12/29 03:24:42;;;;;;;2.83;1.53;;;9.10;99.90;;;;;;4945587;28;20213;-55
2023/12/29 03:27:08;;;;;;;0.90;0.90;;;9.10;99.90;;;;;;4949765;28;20190;-55
2023/12/29 03:29:33;;;;;;;1.77;1.63;;;9.10;99.90;;;;;;4946832;28;20278;-55
2023/12/29 03:31:58;;;;;;;3.17;1.80;;;9.20;99.90;;;;;;4945841;28;20218;-55
2023/12/29 03:34:24;;;;;;;3.63;1.50;;;9.10;99.90;;;;;;4951912;28;20206;-55
2023/12/29 03:36:49;;;;;;;1.20;1.10;;;9.10;99.90;;;;;;4935777;28;20254;-55
2023/12/29 03:39:15;;;;;;;1.40;1.30;;;9.10;99.90;;;;;;4951885;28;20970;-55
2023/12/29 03:41:41;;;;;;;2.70;1.67;;;9.10;99.90;;;;;;4954750;28;20256;-55
2023/12/29 03:44:06;;;;;;;2.77;1.40;;;9.20;99.90;;;;;;4935363;28;20215;-55
2023/12/29 03:46:32;;;;;;;1.53;1.37;;;9.30;99.90;;;;;;4952805;28;20359;-55
2023/12/29 03:48:58;;;;;;;2.00;1.20;;;9.30;99.90;;;;;;4948680;28;20277;-55
2023/12/29 03:51:23;;;;;;;1.67;1.10;;;9.30;99.90;;;;;;4945630;28;20205;-55
2023/12/29 03:53:50;;;;;;;2.00;1.20;;;9.30;99.90;;;;;;4951670;28;20220;-54
2023/12/29 03:56:17;;;;;;;2.07;1.10;;;9.30;99.90;;;;;;4952660;28;20209;-54
2023/12/29 03:58:46;;;;;;;1.20;1.10;;;9.30;99.90;;;;;;4944679;28;20216;-54
2023/12/29 04:01:13;;;;;;;2.53;1.77;;;9.30;99.90;;;;;;4942683;28;20209;-56
2023/12/29 04:03:39;;;;;;;3.07;1.30;;;9.40;99.90;;;;;;4949069;28;20225;-54
2023/12/29 04:06:05;;;;;;;1.27;1.17;;;9.30;99.90;;;;;;4952760;28;20236;-55
2023/12/29 04:08:30;;;;;;;1.63;1.27;;;9.30;99.90;;;;;;4934835;28;20224;-54
2023/12/29 04:10:56;;;;;;;0.87;0.87;;;9.40;99.90;;;;;;4952278;28;21138;-55
2023/12/29 04:13:22;;;;;;;2.50;1.10;;;9.40;99.90;;;;;;4953360;28;20991;-56
2023/12/29 04:15:47;;;;;;;0.80;0.77;;;9.40;99.90;;;;;;4925867;28;20248;-56
2023/12/29 04:18:13;;;;;;;1.60;0.90;;;9.40;99.90;;;;;;4947469;28;20572;-55
2023/12/29 04:20:38;;;;;;;1.63;1.47;;;9.30;99.90;;;;;;4950313;28;20221;-55
2023/12/29 04:23:07;;;;;;;1.40;1.10;;;9.40;99.90;;;;;;4952821;28;20209;-70
2023/12/29 04:25:32;;;;;;;1.10;1.00;;;9.30;99.90;;;;;;4952368;28;20599;-56
2023/12/29 04:27:58;;;;;;;2.80;1.20;;;9.40;99.90;;;;;;4951226;28;20198;-62
2023/12/29 04:30:23;;;;;;;1.10;1.10;;;9.40;99.90;;;;;;4942600;28;20287;-55
2023/12/29 04:32:49;;;;;;;1.80;1.37;;;9.40;99.90;;;;;;4949626;28;20312;-55
2023/12/29 04:35:15;;;;;;;2.40;1.10;;;9.40;99.90;;;;;;4952427;28;20319;-55
2023/12/29 04:37:42;;;;;;;1.97;1.30;;;9.40;99.90;;;;;;4946914;28;20224;-54
2023/12/29 04:40:08;;;;;;;0.80;0.80;;;9.40;99.90;;;;;;4948095;28;20224;-55
2023/12/29 04:42:33;;;;;;;0.70;0.70;;;9.40;99.90;;;;;;4952223;28;20201;-54
2023/12/29 04:44:59;;;;;;;0.97;0.90;;;9.40;99.90;;;;;;4934568;28;20197;-55
2023/12/29 04:47:24;;;;;;;0.70;0.70;;;9.30;99.90;;;;;;4953978;28;20189;-54
2023/12/29 04:49:50;;;;;;;1.30;1.20;;;9.40;99.90;;;;;;4945863;28;20511;-54
2023/12/29 04:52:15;;;;;;;1.03;1.03;;;9.40;99.90;;;;;;4946306;28;20241;-55
2023/12/29 04:54:41;;;;;;;1.10;0.97;;;9.40;99.90;;;;;;4943120;28;20264;-55
2023/12/29 04:57:06;;;;;;;0.90;0.90;;;9.30;99.90;;;;;;4947634;28;20213;-55
2023/12/29 04:59:32;;;;;;;1.03;0.63;;;9.30;99.90;;;;;;4951318;28;20960;-55
2023/12/29 05:01:57;;;;;;;1.47;0.90;;;9.30;99.90;;;;;;4953623;28;20229;-55
2023/12/29 05:04:22;;;;;;;0.73;0.73;;;9.30;99.90;;;;;;4950966;28;20989;-54
2023/12/29 05:06:48;;;;;;;1.43;0.97;;;9.40;99.90;;;;;;4951429;28;20225;-55
2023/12/29 05:09:14;;;;;;;1.40;0.70;;;9.40;99.90;;;;;;4946350;28;20240;-56
2023/12/29 05:11:39;;;;;;;1.27;1.17;;;9.40;99.90;;;;;;4944407;28;20201;-55
2023/12/29 05:14:05;;;;;;;0.83;0.83;;;9.40;99.90;;;;;;4928402;28;20214;-55
2023/12/29 05:16:31;;;;;;;3.03;1.00;;;9.40;99.90;;;;;;4930069;28;20202;-55
2023/12/29 05:18:56;;;;;;;2.23;0.80;;;9.30;99.90;;;;;;4943340;28;20633;-55
2023/12/29 05:21:24;;;;;;;1.33;0.80;;;9.40;99.90;;;;;;4945330;28;20206;-55
2023/12/29 05:23:49;;;;;;;0.93;0.80;;;9.40;99.90;;;;;;4950655;28;20210;-55
2023/12/29 05:26:15;;;;;;;0.57;0.57;;;9.40;99.90;;;;;;4951103;28;20201;-55
2023/12/29 05:28:40;;;;;;;0.87;0.73;;;9.40;99.90;;;;;;4950999;28;20346;-55
2023/12/29 05:31:06;;;;;;;1.77;0.90;;;9.50;99.90;;;;;;4952502;28;20217;-55
2023/12/29 05:33:32;;;;;;;2.13;1.00;;;9.50;99.90;;;;;;4948624;28;20292;-56
2023/12/29 05:35:59;;;;;;;2.20;0.80;;;9.50;99.90;;;;;;4942690;28;20204;-55
2023/12/29 05:38:25;;;;;;;0.73;0.73;;;9.50;99.90;;;;;;4944538;28;20220;-55
2023/12/29 05:40:51;;;;;;;1.10;0.70;;;9.50;99.90;;;;;;4944957;28;20197;-56
2023/12/29 05:43:17;;;;;;;3.80;1.13;;;9.50;99.90;;;;;;4946848;28;20197;-55
2023/12/29 05:45:43;;;;;;;1.03;0.97;;;9.50;99.90;;;;;;4951011;28;20205;-55
2023/12/29 05:48:08;;;;;;;2.37;1.10;;;9.50;99.90;;;;;;4950456;28;20227;-54
2023/12/29 05:50:34;;;;;;;1.90;0.90;;;9.50;99.90;;;;;;4948696;28;20591;-55
2023/12/29 05:52:59;;;;;;;0.90;0.90;;;9.50;99.90;;;;;;4950547;28;20282;-54
2023/12/29 05:55:25;;;;;;;1.20;1.10;;;9.50;99.90;;;;;;4950362;28;20717;-54
2023/12/29 05:57:50;;;;;;;1.93;1.17;;;9.50;99.90;;;;;;4950903;28;20285;-55
2023/12/29 06:00:16;;;;;;;3.00;0.80;;;9.50;99.90;;;;;;4950888;28;20228;-54
2023/12/29 06:02:42;;;;;;;0.90;0.63;;;9.50;99.90;;;;;;4950505;28;20209;-55
2023/12/29 06:05:12;;;;;;;1.50;1.10;;;9.50;99.90;;;;;;4933556;28;20205;-55
2023/12/29 06:07:37;;;;;;;1.07;0.97;;;9.60;99.90;;;;;;4950743;28;20233;-55
2023/12/29 06:10:03;;;;;;;0.67;0.67;;;9.60;99.90;;;;;;4951902;28;20312;-55
2023/12/29 06:12:29;;;;;;;2.30;0.80;;;9.60;99.90;;;;;;4950452;28;20205;-55
2023/12/29 06:14:54;;;;;;;1.90;0.80;;;9.60;99.90;;;;;;4950189;28;20744;-55
2023/12/29 06:17:20;;;;;;;1.00;0.93;;;9.60;99.90;;;;;;4950343;28;20214;-55
2023/12/29 06:19:45;;;;;;;2.10;0.97;;;9.60;99.90;;;;;;4950499;28;20619;-55
2023/12/29 06:22:11;;;;;;;1.43;1.00;;;9.70;99.90;;;;;;4932939;28;20300;-55
2023/12/29 06:24:40;;;;;;;1.20;1.10;;;9.70;99.90;;;;;;4951757;28;20205;-55
2023/12/29 06:27:08;;;;;;;0.57;0.57;;;9.70;99.90;;;;;;4945283;28;20212;-55
2023/12/29 06:29:33;;;;;;;2.20;1.00;;;9.80;99.90;;;;;;4934156;28;20248;-55
2023/12/29 06:31:59;;;;;;;0.70;0.70;;;9.80;99.90;;;;;;4946321;28;20718;-55
2023/12/29 06:34:25;;;;;;;1.03;1.00;;;9.80;99.90;;;;;;4943839;28;20206;-56
2023/12/29 06:36:50;;;;;;;0.93;0.93;;;9.80;99.90;;;;;;4932546;28;20255;-55
2023/12/29 06:39:16;;;;;;;9.53;1.00;;;9.80;99.90;;;;;;4932479;28;20716;-55
2023/12/29 06:41:42;;;;;;;1.53;0.80;;;9.80;99.90;;;;;;4934140;28;20209;-65
2023/12/29 06:44:07;;;;;;;1.67;1.07;;;9.80;99.90;;;;;;4940757;28;20579;-56
2023/12/29 06:46:33;;;;;;;1.13;0.93;;;9.80;99.90;;;;;;4946474;28;20197;-56
2023/12/29 06:48:58;;;;;;;1.03;0.93;;;9.90;99.90;;;;;;4942660;28;20313;-56
2023/12/29 06:51:24;;;;;;;3.03;1.33;;;9.90;99.90;;;;;;4945222;28;20803;-54
2023/12/29 06:53:50;;;;;;;1.27;0.77;;;9.80;99.90;;;;;;4923055;28;20233;-55
2023/12/29 06:56:16;;;;;;;2.43;0.77;;;9.90;99.90;;;;;;4939118;28;20208;-57
2023/12/29 06:58:41;;;;;;;1.23;1.13;;;9.90;99.90;;;;;;4944483;28;20235;-55
2023/12/29 07:01:07;;;;;;;2.07;1.30;;;9.90;99.90;;;;;;4946711;28;20217;-55
2023/12/29 07:03:32;;;;;;;3.33;1.40;;;9.80;99.90;;;;;;4949588;28;20202;-56
2023/12/29 07:06:01;;;;;;;1.17;0.93;;;9.80;99.90;;;;;;4950632;28;20255;-55
2023/12/29 07:08:27;;;;;;;1.40;1.10;;;9.80;99.90;;;;;;4949076;28;20186;-55
2023/12/29 07:10:52;;;;;;;1.43;1.10;;;9.80;99.90;;;;;;4948908;28;20210;-57
2023/12/29 07:13:19;;;;;;;2.70;1.07;;;9.80;99.90;;;;;;4928725;28;20672;-55
2023/12/29 07:15:45;;;;;;;2.67;1.07;;;9.80;99.90;;;;;;4950875;28;20201;-54
2023/12/29 07:18:10;;;;;;;1.53;0.73;;;9.80;99.90;;;;;;4949369;28;20205;-54
2023/12/29 07:20:36;;;;;;;1.37;0.80;;;9.80;99.90;;;;;;4947331;28;20202;-54
2023/12/29 07:23:02;;;;;;;1.07;1.07;;;9.80;99.90;;;;;;4948106;28;20212;-54
2023/12/29 07:25:27;;;;;;;1.40;1.30;;;9.80;99.90;;;;;;4948893;28;20201;-54
2023/12/29 07:27:53;;;;;;;0.87;0.87;;;9.80;99.90;;;;;;4935296;28;20193;-55
2023/12/29 07:30:18;;;;;;;1.00;1.00;;;9.80;99.90;;;;;;4947503;28;20363;-55
2023/12/29 07:32:44;;;;;;;1.20;1.20;;;9.80;99.90;;;;;;4952487;28;20237;-55
2023/12/29 07:35:10;;;;;;;4.93;1.00;;;9.90;99.90;;;;;;4935354;28;20392;-56
2023/12/29 07:37:35;;;;;;;2.43;1.17;;;9.80;99.90;;;;;;4948652;28;20197;-57
2023/12/29 07:40:01;;;;;;;3.90;1.13;;;9.80;99.90;;;;;;4944704;28;20220;-55
2023/12/29 07:42:26;;;;;;;1.10;1.00;;;9.80;99.90;;;;;;4935931;28;20202;-55
2023/12/29 07:44:52;;;;;;;1.10;1.00;;;9.80;99.90;;;;;;4953673;28;20224;-55
2023/12/29 07:47:17;;;;;;;2.73;1.10;;;9.90;99.90;;;;;;4952041;28;20233;-55
2023/12/29 07:49:43;;;;;;;1.93;1.40;;;9.90;99.90;;;;;;4945469;28;20213;-55
2023/12/29 07:52:09;;;;;;;3.47;1.70;;;9.80;99.90;;;;;;4926974;28;20707;-55
2023/12/29 07:54:34;;;;;;;1.43;1.30;;;9.90;99.90;;;;;;4948698;28;20660;-55
2023/12/29 07:57:00;;;;;;;3.50;1.37;;;9.90;99.90;;;;;;4950032;28;20327;-55
2023/12/29 07:59:26;;;;;;;2.23;1.27;;;9.90;99.90;;;;;;4927018;28;20205;-55
2023/12/29 08:01:52;;;;;;;3.20;1.40;;;10.00;99.90;;;;;;4945722;28;20765;-57
2023/12/29 08:04:17;;;;;;;1.37;0.90;;;10.00;99.90;;;;;;4945114;28;20214;-55
2023/12/29 08:06:43;;;;;;;2.43;1.30;;;10.00;99.90;;;;;;4947926;28;20202;-56
2023/12/29 08:09:09;;;;;;;1.87;1.43;;;10.00;99.90;;;;;;4937803;28;20217;-54
2023/12/29 08:11:34;;;;;;;0.90;0.77;;;10.00;99.90;;;;;;4940854;28;20206;-54
2023/12/29 08:14:00;;;;;;;1.87;1.00;;;10.10;99.90;;;;;;4936980;28;20260;-57
2023/12/29 08:16:26;;;;;;;1.47;1.13;;;10.10;99.90;;;;;;4937328;28;21052;-58
2023/12/29 08:18:52;;;;;;;1.40;1.10;;;10.00;99.90;;;;;;4938434;28;20217;-65
2023/12/29 08:21:21;;;;;;;1.63;1.07;;;10.10;99.90;;;;;;4937048;28;20301;-63
2023/12/29 08:23:47;;;;;;;1.33;1.00;;;10.20;99.90;;;;;;4928671;28;20194;-65
2023/12/29 08:26:12;;;;;;;1.13;0.87;;;10.20;99.90;;;;;;4943248;28;20233;-66
2023/12/29 08:28:38;;;;;;;2.77;1.10;;;10.20;99.90;;;;;;4928812;28;20225;-64
2023/12/29 08:31:03;;;;;;;6.33;1.50;;;10.20;99.90;;;;;;4942312;28;20232;-64
2023/12/29 08:33:29;;;;;;;1.60;1.00;;;10.20;99.90;;;;;;4945148;28;20220;-56
2023/12/29 08:36:00;;;;;;;3.77;1.33;;;10.20;99.90;;;;;;4947443;28;20276;-55
2023/12/29 08:38:28;;;;;;;2.50;1.00;;;10.20;99.90;;;;;;4933807;28;20579;-55
2023/12/29 08:40:54;;;;;;;2.50;1.17;;;10.20;99.90;;;;;;4944727;28;20230;-56
2023/12/29 08:43:21;;;;;;;1.47;0.97;;;10.20;99.90;;;;;;4926652;28;20756;-56
2023/12/29 08:45:47;;;;;;;1.27;0.90;;;10.30;99.90;;;;;;4951277;28;20282;-56
2023/12/29 08:48:13;;;;;;;4.03;1.03;;;10.30;99.90;;;;;;4947943;28;20862;-56
2023/12/29 08:50:38;;;;;;;2.13;1.23;;;10.30;99.90;;;;;;4943863;28;20225;-56
2023/12/29 08:53:04;;;;;;;2.53;1.00;;;10.30;99.90;;;;;;4926387;28;20214;-55
2023/12/29 08:55:31;;;;;;;1.20;1.10;;;10.20;99.90;;;;;;4958362;28;20206;-55
2023/12/29 08:57:57;;;;;;;0.90;0.90;;;10.30;99.90;;;;;;4951531;28;20201;-57
2023/12/29 09:00:22;;;;;;;1.97;1.10;;;10.20;99.90;;;;;;4951310;28;20210;-56
2023/12/29 09:02:48;;;;;;;1.03;0.90;;;10.20;99.90;;;;;;4947493;28;20206;-66
2023/12/29 09:05:13;;;;;;;1.97;1.20;;;10.30;99.90;;;;;;4945651;28;20262;-59
2023/12/29 09:07:39;;;;;;;2.27;1.20;;;10.40;99.90;;;;;;4933664;28;20205;-55
2023/12/29 09:10:10;;;;;;;1.13;1.03;;;10.60;99.90;;;;;;4947295;28;20726;-69
2023/12/29 09:12:36;;;;;;;0.73;0.70;;;10.70;99.90;;;;;;4950416;28;20193;-55
2023/12/29 09:15:02;;;;;;;2.80;1.43;;;11.00;99.90;;;;;;4950480;28;20222;-55
2023/12/29 09:17:27;;;;;;;1.13;1.03;;;10.90;99.90;;;;;;4946474;28;20714;-65
2023/12/29 09:19:55;;;;;;;2.40;1.23;;;10.90;99.90;;;;;;4928893;28;20208;-63
2023/12/29 09:22:21;;;;;;;5.27;1.40;;;10.90;99.90;;;;;;4951317;28;20289;-69
2023/12/29 09:24:47;;;;;;;2.30;1.27;;;10.80;99.90;;;;;;4932575;28;20411;-63
2023/12/29 09:27:13;;;;;;;1.40;1.30;;;10.80;99.90;;;;;;4929957;28;20342;-56
2023/12/29 09:29:39;;;;;;;3.07;1.37;;;10.90;99.90;;;;;;4933751;28;20220;-56
2023/12/29 09:32:05;;;;;;;1.40;0.80;;;10.90;99.90;;;;;;4934186;28;20899;-55
2023/12/29 09:34:30;;;;;;;4.00;1.23;;;11.20;99.90;;;;;;4951131;28;20284;-55
2023/12/29 09:36:56;;;;;;;1.07;0.90;;;11.20;99.90;;;;;;4948470;28;20226;-56
2023/12/29 09:39:22;;;;;;;1.97;1.20;;;11.10;99.90;;;;;;4952132;28;20706;-55
2023/12/29 09:41:51;;;;;;;1.97;1.00;;;11.10;99.90;;;;;;4945441;28;20282;-55
2023/12/29 09:44:20;;;;;;;2.73;1.00;;;11.00;99.90;;;;;;4944743;28;20376;-57
2023/12/29 09:46:49;;;;;;;1.30;1.07;;;11.10;99.90;;;;;;4946754;28;20743;-56
2023/12/29 09:49:18;;;;;;;2.30;1.27;;;11.00;99.90;;;;;;4949118;28;20276;-66
2023/12/29 09:51:45;;;;;;;1.37;1.03;;;11.00;99.90;;;;;;4946335;28;20642;-65
2023/12/29 09:54:11;;;;;;;2.27;1.40;;;10.90;99.90;;;;;;4927757;28;20201;-56
2023/12/29 09:56:37;;;;;;;1.33;1.10;;;10.90;99.90;;;;;;4944818;28;20876;-56
2023/12/29 09:59:03;;;;;;;1.37;1.23;;;10.80;99.90;;;;;;4942714;28;20203;-66
2023/12/29 10:01:30;;;;;;;3.33;1.20;;;10.80;99.90;;;;;;4948396;28;20206;-62
2023/12/29 10:03:56;;;;;;;2.00;1.20;;;10.90;99.90;;;;;;4946133;28;20937;-63
2023/12/29 10:06:24;;;;;;;3.83;1.17;;;10.90;99.90;;;;;;4942391;28;20679;-63
2023/12/29 10:08:50;;;;;;;3.47;1.40;;;11.00;99.90;;;;;;4946419;28;20205;-55
2023/12/29 10:11:19;;;;;;;1.87;1.10;;;11.20;99.90;;;;;;4946777;28;20233;-71
2023/12/29 10:13:48;;;;;;;1.37;0.90;;;11.10;99.90;;;;;;4925176;28;20209;-66
2023/12/29 10:16:27;;;;;;;3.13;1.20;;;11.00;99.90;;;;;;4944959;28;20297;-56
2023/12/29 10:19:26;;;;;;;2.80;1.23;;;11.00;99.90;;;;;;4950188;28;20230;-63
2023/12/29 10:22:08;;;;;;;4.40;1.00;;;11.00;99.90;;;;;;4932932;28;20203;-61
2023/12/29 10:24:34;;;;;;;2.57;1.50;;;11.00;99.90;;;;;;4940064;28;20215;-55
2023/12/29 10:27:00;;;;;;;1.27;1.00;;;11.00;99.90;;;;;;4946966;28;20564;-55
2023/12/29 10:29:27;;;;;;;3.33;1.30;;;11.00;99.90;;;;;;4943838;28;20216;-60
2023/12/29 10:31:53;;;;;;;3.20;1.20;;;11.00;99.90;;;;;;4939733;28;20372;-57
2023/12/29 10:34:43;;;;;;;3.50;1.23;;;11.10;99.90;;;;;;4924047;28;20753;-56
2023/12/29 10:37:13;;;;;;;3.20;1.20;;;11.10;99.90;;;;;;4935949;28;20860;-55
2023/12/29 10:39:38;;;;;;;1.73;1.40;;;11.20;99.90;;;;;;4937994;28;20210;-56
2023/12/29 10:42:06;;;;;;;2.30;1.43;;;11.20;99.90;;;;;;4940342;28;20738;-57
2023/12/29 10:44:33;;;;;;;3.23;1.20;;;11.20;99.90;;;;;;4938384;28;20751;-57
2023/12/29 10:46:58;;;;;;;1.10;1.00;;;11.20;99.90;;;;;;4936974;28;20215;-57
2023/12/29 10:49:24;;;;;;;2.57;1.30;;;11.20;99.90;;;;;;4938761;28;20695;-54
2023/12/29 10:51:50;;;;;;;1.87;1.20;;;11.20;99.90;;;;;;4916460;28;20194;-55
2023/12/29 10:54:23;;;;;;;1.97;1.00;;;11.20;99.90;;;;;;4938224;28;20217;-55
2023/12/29 10:57:01;;;;;;;2.70;1.07;;;11.10;99.90;;;;;;4947717;28;20225;-55
2023/12/29 10:59:27;;;;;;;4.30;1.10;;;11.20;99.90;;;;;;4949700;28;20200;-56
2023/12/29 11:01:53;;;;;;;3.90;1.30;;;11.20;99.90;;;;;;4928309;28;20203;-64
2023/12/29 11:04:22;;;;;;;5.33;1.30;;;11.30;99.90;;;;;;4925209;28;20669;-56
2023/12/29 11:06:48;;;;;;;2.23;1.07;;;11.30;99.90;;;;;;4944250;28;20680;-56
2023/12/29 11:09:14;;;;;;;4.03;1.20;;;11.40;99.90;;;;;;4949855;28;20759;-56
2023/12/29 11:11:39;;;;;;;2.90;1.20;;;11.40;99.90;;;;;;4954616;28;20195;-56
2023/12/29 11:14:08;;;;;;;1.53;0.87;;;11.40;99.90;;;;;;4927825;28;20256;-56
2023/12/29 11:16:33;;;;;;;1.17;1.00;;;11.40;99.90;;;;;;4953229;28;20259;-56
2023/12/29 11:19:01;;;;;;;1.03;0.80;;;11.40;99.90;;;;;;4928984;28;20202;-61
2023/12/29 11:21:27;;;;;;;6.27;1.27;;;11.40;99.90;;;;;;4941460;28;20209;-56
2023/12/29 11:23:53;;;;;;;1.93;1.30;;;11.40;99.90;;;;;;4941124;28;20226;-57
2023/12/29 11:26:19;;;;;;;1.53;1.03;;;11.40;99.90;;;;;;4935718;28;20294;-56
2023/12/29 11:28:50;;;;;;;2.70;1.23;;;11.50;99.90;;;;;;4954748;28;20221;-56
2023/12/29 11:31:17;;;;;;;4.20;1.77;;;11.50;99.90;;;;;;4947935;28;20237;-56
2023/12/29 11:33:50;;;;;;;2.83;1.13;;;11.50;99.90;;;;;;4946432;28;20209;-56
2023/12/29 11:36:27;;;;;;;2.87;1.20;;;11.50;99.90;;;;;;4935135;28;20206;-56
2023/12/29 11:39:01;;;;;;;2.03;1.57;;;11.50;99.90;;;;;;4945979;28;20689;-56
2023/12/29 11:42:03;;;;;;;3.30;1.50;;;11.50;99.90;;;;;;4953066;28;20192;-56
2023/12/29 11:44:29;;;;;;;3.73;1.30;;;11.60;99.90;;;;;;4950186;28;20203;-56
2023/12/29 11:46:57;;;;;;;3.40;1.80;;;11.60;99.90;;;;;;4952691;28;20287;-59
2023/12/29 11:49:22;;;;;;;1.73;1.10;;;11.60;99.90;;;;;;4952669;28;20647;-57
2023/12/29 11:51:49;;;;;;;7.67;2.40;;;11.60;99.90;;;;;;4945173;28;20667;-57
2023/12/29 11:54:27;;;;;;;5.73;1.93;;;11.50;99.90;;;;;;4946591;28;20257;-57
2023/12/29 11:56:54;;;;;;;4.07;1.37;;;11.50;99.90;;;;;;4938816;28;20788;-56
2023/12/29 11:59:24;;;;;;;4.37;1.17;;;11.50;99.90;;;;;;4942132;28;20277;-54
2023/12/29 12:01:54;;;;;;;1.57;0.90;;;11.50;99.90;;;;;;4938267;28;20197;-56
2023/12/29 12:04:42;;;;;;;2.10;0.80;;;11.60;99.90;;;;;;4928581;28;20211;-57
2023/12/29 12:07:36;;;;;;;2.00;0.97;;;11.50;99.90;;;;;;4943758;28;20211;-68
2023/12/29 12:10:19;;;;;;;3.43;1.27;;;11.50;99.90;;;;;;4945313;28;20623;-54
2023/12/29 12:12:45;;;;;;;2.93;0.83;;;11.50;99.90;;;;;;4949781;28;20193;-56
2023/12/29 12:15:26;;;;;;;2.87;1.20;;;11.50;99.90;;;;;;4937471;28;20894;-56
2023/12/29 12:17:52;;;;;;;4.40;1.67;;;11.50;99.90;;;;;;4971025;23;20230;-58
2023/12/29 12:20:17;;;;;;;1.17;0.80;;;11.50;99.90;;;;;;4948647;28;20300;-56
2023/12/29 12:22:44;;;;;;;0.97;0.93;;;11.60;99.90;;;;;;4952992;28;20206;-59
2023/12/29 12:25:11;;;;;;;0.73;0.73;;;11.50;99.90;;;;;;4945835;28;20206;-55
2023/12/29 12:27:38;;;;;;;1.83;1.73;;;11.50;99.90;;;;;;4947920;28;20841;-66
2023/12/29 12:30:09;;;;;;;2.87;1.30;;;11.50;99.90;;;;;;4945604;28;20310;-64
2023/12/29 12:32:35;;;;;;;3.77;1.30;;;11.30;99.90;;;;;;4940739;28;20214;-66
2023/12/29 12:35:01;;;;;;;1.73;1.10;;;11.30;99.90;;;;;;4945492;28;20206;-60
2023/12/29 12:37:29;;;;;;;3.97;1.27;;;11.30;99.90;;;;;;4947135;28;20207;-57
2023/12/29 12:39:55;;;;;;;3.23;2.00;;;11.40;99.90;;;;;;4948982;28;20250;-58
2023/12/29 12:42:22;;;;;;;3.33;1.23;;;11.30;99.90;;;;;;4948333;28;20329;-57
2023/12/29 12:45:06;;;;;;;2.97;1.20;;;11.20;99.90;;;;;;4948741;28;20651;-58
2023/12/29 12:47:45;;;;;;;2.37;1.40;;;11.10;99.90;;;;;;4957799;28;20236;-61
2023/12/29 12:50:14;;;;;;;1.60;1.10;;;10.90;99.90;;;;;;4942985;28;20287;-57
2023/12/29 12:52:40;;;;;;;3.00;1.70;;;10.90;99.90;;;;;;4952268;28;20749;-56